sensor_id;sensor_type;location;lat;lon;timestamp;temperature;humidity
22925;DHT22;11628;51.072;3.712;2024-03-08T00:00:43;7.60;99.90
22925;DHT22;11628;51.072;3.712;2024-03-08T00:03:09;7.60;99.90
22925;DHT22;11628;51.072;3.712;2024-03-08T00:05:37;7.60;99.90
22925;DHT22;11628;51.072;3.712;2024-03-08T00:08:07;7.70;99.90
22925;DHT22;11628;51.072;3.712;2024-03-08T00:10:35;7.60;99.90
22925;DHT22;11628;51.072;3.712;2024-03-08T00:13:01;7.60;99.90
22925;DHT22;11628;51.072;3.712;2024-03-08T00:15:29;7.60;99.90
22925;DHT22;11628;51.072;3.712;2024-03-08T00:17:55;7.60;99.90
22925;DHT22;11628;51.072;3.712;2024-03-08T00:20:21;7.60;99.90
22925;DHT22;11628;51.072;3.712;2024-03-08T00:22:46;7.40;99.90
22925;DHT22;11628;51.072;3.712;2024-03-08T00:25:12;7.40;99.90
22925;DHT22;11628;51.072;3.712;2024-03-08T00:27:38;7.40;99.90
22925;DHT22;11628;51.072;3.712;2024-03-08T00:30:07;7.30;99.90
22925;DHT22;11628;51.072;3.712;2024-03-08T00:32:33;7.30;99.90
22925;DHT22;11628;51.072;3.712;2024-03-08T00:35:02;7.20;99.90
22925;DHT22;11628;51.072;3.712;2024-03-08T00:37:28;7.20;99.90
22925;DHT22;11628;51.072;3.712;2024-03-08T00:39:54;7.20;99.90
22925;DHT22;11628;51.072;3.712;2024-03-08T00:42:22;7.30;99.90
22925;DHT22;11628;51.072;3.712;2024-03-08T00:44:51;7.30;99.90
22925;DHT22;11628;51.072;3.712;2024-03-08T00:47:17;7.20;99.90
22925;DHT22;11628;51.072;3.712;2024-03-08T00:49:45;7.10;99.90
22925;DHT22;11628;51.072;3.712;2024-03-08T00:52:11;7.20;99.90
22925;DHT22;11628;51.072;3.712;2024-03-08T00:54:37;7.20;99.90
22925;DHT22;11628;51.072;3.712;2024-03-08T00:57:06;7.10;99.90
22925;DHT22;11628;51.072;3.712;2024-03-08T00:59:32;7.10;99.90
22925;DHT22;11628;51.072;3.712;2024-03-08T01:02:01;7.10;99.90
22925;DHT22;11628;51.072;3.712;2024-03-08T01:04:30;7.10;99.90
22925;DHT22;11628;51.072;3.712;2024-03-08T01:06:56;7.10;99.90
22925;DHT22;11628;51.072;3.712;2024-03-08T01:09:23;7.10;99.90
22925;DHT22;11628;51.072;3.712;2024-03-08T01:11:49;7.00;99.90
22925;DHT22;11628;51.072;3.712;2024-03-08T01:14:16;7.00;99.90
22925;DHT22;11628;51.072;3.712;2024-03-08T01:16:42;7.10;99.90
22925;DHT22;11628;51.072;3.712;2024-03-08T01:19:07;7.10;99.90
22925;DHT22;11628;51.072;3.712;2024-03-08T01:21:34;7.10;99.90
22925;DHT22;11628;51.072;3.712;2024-03-08T01:24:02;7.10;99.90
22925;DHT22;11628;51.072;3.712;2024-03-08T01:26:30;6.90;99.90
22925;DHT22;11628;51.072;3.712;2024-03-08T01:28:56;6.90;99.90
22925;DHT22;11628;51.072;3.712;2024-03-08T01:31:22;7.00;99.90
22925;DHT22;11628;51.072;3.712;2024-03-08T01:33:52;6.90;99.90
22925;DHT22;11628;51.072;3.712;2024-03-08T01:36:18;6.90;99.90
22925;DHT22;11628;51.072;3.712;2024-03-08T01:38:44;6.80;99.90
22925;DHT22;11628;51.072;3.712;2024-03-08T01:41:10;6.70;99.90
22925;DHT22;11628;51.072;3.712;2024-03-08T01:43:38;6.80;99.90
22925;DHT22;11628;51.072;3.712;2024-03-08T01:46:05;6.90;99.90
22925;DHT22;11628;51.072;3.712;2024-03-08T01:48:31;6.90;99.90
22925;DHT22;11628;51.072;3.712;2024-03-08T01:51:01;6.80;99.90
22925;DHT22;11628;51.072;3.712;2024-03-08T01:53:27;6.80;99.90
22925;DHT22;11628;51.072;3.712;2024-03-08T01:55:56;6.80;99.90
22925;DHT22;11628;51.072;3.712;2024-03-08T01:58:23;6.80;99.90
22925;DHT22;11628;51.072;3.712;2024-03-08T02:00:49;6.70;99.90
22925;DHT22;11628;51.072;3.712;2024-03-08T02:03:17;6.70;99.90
22925;DHT22;11628;51.072;3.712;2024-03-08T02:05:43;6.80;99.90
22925;DHT22;11628;51.072;3.712;2024-03-08T02:08:09;6.70;99.90
22925;DHT22;11628;51.072;3.712;2024-03-08T02:10:45;6.60;99.90
22925;DHT22;11628;51.072;3.712;2024-03-08T02:13:13;6.60;99.90
22925;DHT22;11628;51.072;3.712;2024-03-08T02:15:52;6.70;99.90
22925;DHT22;11628;51.072;3.712;2024-03-08T02:18:21;6.60;99.90
22925;DHT22;11628;51.072;3.712;2024-03-08T02:20:54;6.60;99.90
22925;DHT22;11628;51.072;3.712;2024-03-08T02:23:20;6.70;99.90
22925;DHT22;11628;51.072;3.712;2024-03-08T02:25:47;6.60;99.90
22925;DHT22;11628;51.072;3.712;2024-03-08T02:28:13;6.60;99.90
22925;DHT22;11628;51.072;3.712;2024-03-08T02:30:41;6.50;99.90
22925;DHT22;11628;51.072;3.712;2024-03-08T02:33:08;6.50;99.90
22925;DHT22;11628;51.072;3.712;2024-03-08T02:35:39;6.50;99.90
22925;DHT22;11628;51.072;3.712;2024-03-08T02:38:08;6.50;99.90
22925;DHT22;11628;51.072;3.712;2024-03-08T02:40:34;6.40;99.90
22925;DHT22;11628;51.072;3.712;2024-03-08T02:42:59;6.40;99.90
22925;DHT22;11628;51.072;3.712;2024-03-08T02:45:25;6.40;99.90
22925;DHT22;11628;51.072;3.712;2024-03-08T02:47:51;6.40;99.90
22925;DHT22;11628;51.072;3.712;2024-03-08T02:50:17;6.40;99.90
22925;DHT22;11628;51.072;3.712;2024-03-08T02:52:43;6.30;99.90
22925;DHT22;11628;51.072;3.712;2024-03-08T02:55:09;6.30;99.90
22925;DHT22;11628;51.072;3.712;2024-03-08T02:57:36;6.30;99.90
22925;DHT22;11628;51.072;3.712;2024-03-08T03:00:02;6.30;99.90
22925;DHT22;11628;51.072;3.712;2024-03-08T03:02:29;6.30;99.90
22925;DHT22;11628;51.072;3.712;2024-03-08T03:04:59;6.30;99.90
22925;DHT22;11628;51.072;3.712;2024-03-08T03:07:32;6.20;99.90
22925;DHT22;11628;51.072;3.712;2024-03-08T03:10:01;6.20;99.90
22925;DHT22;11628;51.072;3.712;2024-03-08T03:12:31;6.20;99.90
22925;DHT22;11628;51.072;3.712;2024-03-08T03:14:57;6.20;99.90
22925;DHT22;11628;51.072;3.712;2024-03-08T03:17:23;6.20;99.90
22925;DHT22;11628;51.072;3.712;2024-03-08T03:19:50;6.10;99.90
22925;DHT22;11628;51.072;3.712;2024-03-08T03:22:17;6.20;99.90
22925;DHT22;11628;51.072;3.712;2024-03-08T03:24:46;6.10;99.90
22925;DHT22;11628;51.072;3.712;2024-03-08T03:27:16;6.10;99.90
22925;DHT22;11628;51.072;3.712;2024-03-08T03:29:42;6.00;99.90
22925;DHT22;11628;51.072;3.712;2024-03-08T03:32:14;6.00;99.90
22925;DHT22;11628;51.072;3.712;2024-03-08T03:34:41;6.00;99.90
22925;DHT22;11628;51.072;3.712;2024-03-08T03:37:09;5.90;99.90
22925;DHT22;11628;51.072;3.712;2024-03-08T03:39:40;6.00;99.90
22925;DHT22;11628;51.072;3.712;2024-03-08T03:42:18;6.00;99.90
22925;DHT22;11628;51.072;3.712;2024-03-08T03:44:47;6.00;99.90
22925;DHT22;11628;51.072;3.712;2024-03-08T03:47:14;6.00;99.90
22925;DHT22;11628;51.072;3.712;2024-03-08T03:49:42;5.90;99.90
22925;DHT22;11628;51.072;3.712;2024-03-08T03:52:10;5.80;99.90
22925;DHT22;11628;51.072;3.712;2024-03-08T03:54:36;5.80;99.90
22925;DHT22;11628;51.072;3.712;2024-03-08T03:57:02;5.90;99.90
22925;DHT22;11628;51.072;3.712;2024-03-08T03:59:28;5.80;99.90
22925;DHT22;11628;51.072;3.712;2024-03-08T04:01:54;5.80;99.90
22925;DHT22;11628;51.072;3.712;2024-03-08T04:04:21;5.80;99.90
22925;DHT22;11628;51.072;3.712;2024-03-08T04:06:47;5.80;99.90
22925;DHT22;11628;51.072;3.712;2024-03-08T04:09:13;5.70;99.90
22925;DHT22;11628;51.072;3.712;2024-03-08T04:11:39;5.70;99.90
22925;DHT22;11628;51.072;3.712;2024-03-08T04:14:09;5.80;99.90
22925;DHT22;11628;51.072;3.712;2024-03-08T04:16:37;5.70;99.90
22925;DHT22;11628;51.072;3.712;2024-03-08T04:19:05;5.60;99.90
22925;DHT22;11628;51.072;3.712;2024-03-08T04:21:33;5.70;99.90
22925;DHT22;11628;51.072;3.712;2024-03-08T04:24:01;5.70;99.90
22925;DHT22;11628;51.072;3.712;2024-03-08T04:26:31;5.70;99.90
22925;DHT22;11628;51.072;3.712;2024-03-08T04:28:57;5.70;99.90
22925;DHT22;11628;51.072;3.712;2024-03-08T04:31:25;5.60;99.90
22925;DHT22;11628;51.072;3.712;2024-03-08T04:33:52;5.60;99.90
22925;DHT22;11628;51.072;3.712;2024-03-08T04:36:18;5.60;99.90
22925;DHT22;11628;51.072;3.712;2024-03-08T04:38:45;5.50;99.90
22925;DHT22;11628;51.072;3.712;2024-03-08T04:41:11;5.60;99.90
22925;DHT22;11628;51.072;3.712;2024-03-08T04:43:40;5.60;99.90
22925;DHT22;11628;51.072;3.712;2024-03-08T04:46:08;5.50;99.90
22925;DHT22;11628;51.072;3.712;2024-03-08T04:48:36;5.50;99.90
22925;DHT22;11628;51.072;3.712;2024-03-08T04:51:03;5.60;99.90
22925;DHT22;11628;51.072;3.712;2024-03-08T04:53:29;5.60;99.90
22925;DHT22;11628;51.072;3.712;2024-03-08T04:55:55;5.50;99.90
22925;DHT22;11628;51.072;3.712;2024-03-08T04:58:25;5.50;99.90
22925;DHT22;11628;51.072;3.712;2024-03-08T05:00:51;5.50;99.90
22925;DHT22;11628;51.072;3.712;2024-03-08T05:03:19;5.50;99.90
22925;DHT22;11628;51.072;3.712;2024-03-08T05:05:46;5.40;99.90
22925;DHT22;11628;51.072;3.712;2024-03-08T05:08:12;5.30;99.90
22925;DHT22;11628;51.072;3.712;2024-03-08T05:10:38;5.40;99.90
22925;DHT22;11628;51.072;3.712;2024-03-08T05:13:04;5.40;99.90
22925;DHT22;11628;51.072;3.712;2024-03-08T05:15:29;5.30;99.90
22925;DHT22;11628;51.072;3.712;2024-03-08T05:17:55;5.30;99.90
22925;DHT22;11628;51.072;3.712;2024-03-08T05:20:25;5.40;99.90
22925;DHT22;11628;51.072;3.712;2024-03-08T05:22:53;5.40;99.90
22925;DHT22;11628;51.072;3.712;2024-03-08T05:25:19;5.40;99.90
22925;DHT22;11628;51.072;3.712;2024-03-08T05:27:47;5.40;99.90
22925;DHT22;11628;51.072;3.712;2024-03-08T05:30:13;5.30;99.90
22925;DHT22;11628;51.072;3.712;2024-03-08T05:32:43;5.30;99.90
22925;DHT22;11628;51.072;3.712;2024-03-08T05:35:11;5.30;99.90
22925;DHT22;11628;51.072;3.712;2024-03-08T05:37:42;5.20;99.90
22925;DHT22;11628;51.072;3.712;2024-03-08T05:40:10;5.20;99.90
22925;DHT22;11628;51.072;3.712;2024-03-08T05:42:36;5.30;99.90
22925;DHT22;11628;51.072;3.712;2024-03-08T05:45:05;5.40;99.90
22925;DHT22;11628;51.072;3.712;2024-03-08T05:47:36;5.30;99.90
22925;DHT22;11628;51.072;3.712;2024-03-08T05:50:02;5.30;99.90
22925;DHT22;11628;51.072;3.712;2024-03-08T05:52:28;5.30;99.90
22925;DHT22;11628;51.072;3.712;2024-03-08T05:54:53;5.20;99.90
22925;DHT22;11628;51.072;3.712;2024-03-08T05:57:21;5.20;99.90
22925;DHT22;11628;51.072;3.712;2024-03-08T05:59:48;5.20;99.90
22925;DHT22;11628;51.072;3.712;2024-03-08T06:02:18;5.20;99.90
22925;DHT22;11628;51.072;3.712;2024-03-08T06:04:46;5.20;99.90
22925;DHT22;11628;51.072;3.712;2024-03-08T06:07:12;5.20;99.90
22925;DHT22;11628;51.072;3.712;2024-03-08T06:09:38;5.20;99.90
22925;DHT22;11628;51.072;3.712;2024-03-08T06:12:06;5.20;99.90
22925;DHT22;11628;51.072;3.712;2024-03-08T06:14:36;5.20;99.90
22925;DHT22;11628;51.072;3.712;2024-03-08T06:17:02;5.20;99.90
22925;DHT22;11628;51.072;3.712;2024-03-08T06:19:28;5.20;99.90
22925;DHT22;11628;51.072;3.712;2024-03-08T06:21:54;5.30;99.90
22925;DHT22;11628;51.072;3.712;2024-03-08T06:24:23;5.30;99.90
22925;DHT22;11628;51.072;3.712;2024-03-08T06:26:48;5.20;99.90
22925;DHT22;11628;51.072;3.712;2024-03-08T06:29:16;5.20;99.90
22925;DHT22;11628;51.072;3.712;2024-03-08T06:31:42;5.20;99.90
22925;DHT22;11628;51.072;3.712;2024-03-08T06:34:08;5.20;99.90
22925;DHT22;11628;51.072;3.712;2024-03-08T06:36:34;5.20;99.90
22925;DHT22;11628;51.072;3.712;2024-03-08T06:39:00;5.20;99.90
22925;DHT22;11628;51.072;3.712;2024-03-08T06:41:26;5.10;99.90
22925;DHT22;11628;51.072;3.712;2024-03-08T06:43:52;5.10;99.90
22925;DHT22;11628;51.072;3.712;2024-03-08T06:46:25;5.20;99.90
22925;DHT22;11628;51.072;3.712;2024-03-08T06:48:54;5.20;99.90
22925;DHT22;11628;51.072;3.712;2024-03-08T06:51:19;5.20;99.90
22925;DHT22;11628;51.072;3.712;2024-03-08T06:53:45;5.20;99.90
22925;DHT22;11628;51.072;3.712;2024-03-08T06:56:11;5.20;99.90
22925;DHT22;11628;51.072;3.712;2024-03-08T06:58:39;5.30;99.90
22925;DHT22;11628;51.072;3.712;2024-03-08T07:01:07;5.30;99.90
22925;DHT22;11628;51.072;3.712;2024-03-08T07:03:41;5.40;99.90
22925;DHT22;11628;51.072;3.712;2024-03-08T07:06:12;5.40;99.90
22925;DHT22;11628;51.072;3.712;2024-03-08T07:08:39;5.50;99.90
22925;DHT22;11628;51.072;3.712;2024-03-08T07:11:05;5.50;99.90
22925;DHT22;11628;51.072;3.712;2024-03-08T07:13:31;5.60;99.90
22925;DHT22;11628;51.072;3.712;2024-03-08T07:15:57;5.60;99.90
22925;DHT22;11628;51.072;3.712;2024-03-08T07:18:26;5.60;99.90
22925;DHT22;11628;51.072;3.712;2024-03-08T07:20:55;5.70;99.90
22925;DHT22;11628;51.072;3.712;2024-03-08T07:23:23;5.80;99.90
22925;DHT22;11628;51.072;3.712;2024-03-08T07:26:07;5.80;99.90
22925;DHT22;11628;51.072;3.712;2024-03-08T07:28:33;6.00;99.90
22925;DHT22;11628;51.072;3.712;2024-03-08T07:30:59;6.10;99.90
22925;DHT22;11628;51.072;3.712;2024-03-08T07:33:38;6.10;99.90
22925;DHT22;11628;51.072;3.712;2024-03-08T07:36:06;6.10;99.90
22925;DHT22;11628;51.072;3.712;2024-03-08T07:38:32;6.30;99.90
22925;DHT22;11628;51.072;3.712;2024-03-08T07:41:00;6.40;99.90
22925;DHT22;11628;51.072;3.712;2024-03-08T07:43:28;6.50;99.90
22925;DHT22;11628;51.072;3.712;2024-03-08T07:45:58;6.60;99.90
22925;DHT22;11628;51.072;3.712;2024-03-08T07:48:29;6.90;99.90
22925;DHT22;11628;51.072;3.712;2024-03-08T07:50:56;7.30;99.90
22925;DHT22;11628;51.072;3.712;2024-03-08T07:53:22;7.80;99.90
22925;DHT22;11628;51.072;3.712;2024-03-08T07:55:50;8.70;99.90
22925;DHT22;11628;51.072;3.712;2024-03-08T07:58:18;9.20;99.90
22925;DHT22;11628;51.072;3.712;2024-03-08T08:00:45;9.20;99.90
22925;DHT22;11628;51.072;3.712;2024-03-08T08:03:11;9.30;99.90
22925;DHT22;11628;51.072;3.712;2024-03-08T08:05:38;9.40;99.90
22925;DHT22;11628;51.072;3.712;2024-03-08T08:08:05;10.10;99.90
22925;DHT22;11628;51.072;3.712;2024-03-08T08:10:34;10.20;99.90
22925;DHT22;11628;51.072;3.712;2024-03-08T08:13:02;10.40;99.90
22925;DHT22;11628;51.072;3.712;2024-03-08T08:15:30;10.90;99.90
22925;DHT22;11628;51.072;3.712;2024-03-08T08:17:55;11.40;99.90
22925;DHT22;11628;51.072;3.712;2024-03-08T08:20:21;11.10;99.90
22925;DHT22;11628;51.072;3.712;2024-03-08T08:22:48;11.30;99.90
22925;DHT22;11628;51.072;3.712;2024-03-08T08:25:16;11.20;99.90
22925;DHT22;11628;51.072;3.712;2024-03-08T08:27:46;11.30;99.90
22925;DHT22;11628;51.072;3.712;2024-03-08T08:30:12;11.80;99.90
22925;DHT22;11628;51.072;3.712;2024-03-08T08:32:41;12.50;99.90
22925;DHT22;11628;51.072;3.712;2024-03-08T08:35:09;12.60;99.90
22925;DHT22;11628;51.072;3.712;2024-03-08T08:37:39;12.50;99.90
22925;DHT22;11628;51.072;3.712;2024-03-08T08:40:08;12.60;99.90
22925;DHT22;11628;51.072;3.712;2024-03-08T08:42:37;12.90;99.90
22925;DHT22;11628;51.072;3.712;2024-03-08T08:45:07;13.10;99.90
22925;DHT22;11628;51.072;3.712;2024-03-08T08:47:36;13.70;99.90
22925;DHT22;11628;51.072;3.712;2024-03-08T08:50:03;13.90;99.90
22925;DHT22;11628;51.072;3.712;2024-03-08T08:52:31;14.20;99.90
22925;DHT22;11628;51.072;3.712;2024-03-08T08:55:00;13.90;99.90
22925;DHT22;11628;51.072;3.712;2024-03-08T08:57:29;15.10;99.90
22925;DHT22;11628;51.072;3.712;2024-03-08T08:59:56;14.50;99.90
22925;DHT22;11628;51.072;3.712;2024-03-08T09:02:25;14.40;99.90
22925;DHT22;11628;51.072;3.712;2024-03-08T09:04:53;15.20;99.90
22925;DHT22;11628;51.072;3.712;2024-03-08T09:07:21;15.50;99.90
22925;DHT22;11628;51.072;3.712;2024-03-08T09:09:49;15.70;99.90
22925;DHT22;11628;51.072;3.712;2024-03-08T09:12:15;16.00;99.50
22925;DHT22;11628;51.072;3.712;2024-03-08T09:14:41;16.60;98.40
22925;DHT22;11628;51.072;3.712;2024-03-08T09:17:08;16.60;98.50
22925;DHT22;11628;51.072;3.712;2024-03-08T09:19:34;18.40;95.30
22925;DHT22;11628;51.072;3.712;2024-03-08T09:22:03;18.20;93.70
22925;DHT22;11628;51.072;3.712;2024-03-08T09:24:29;17.50;94.30
22925;DHT22;11628;51.072;3.712;2024-03-08T09:26:56;17.60;94.20
22925;DHT22;11628;51.072;3.712;2024-03-08T09:29:24;17.80;93.30
22925;DHT22;11628;51.072;3.712;2024-03-08T09:31:52;18.50;92.50
22925;DHT22;11628;51.072;3.712;2024-03-08T09:34:17;18.60;91.40
22925;DHT22;11628;51.072;3.712;2024-03-08T09:36:44;18.50;91.90
22925;DHT22;11628;51.072;3.712;2024-03-08T09:39:12;18.70;91.40
22925;DHT22;11628;51.072;3.712;2024-03-08T09:41:45;18.60;91.10
22925;DHT22;11628;51.072;3.712;2024-03-08T09:44:19;18.80;90.80
22925;DHT22;11628;51.072;3.712;2024-03-08T09:46:48;18.50;90.80
22925;DHT22;11628;51.072;3.712;2024-03-08T09:49:19;19.00;91.10
22925;DHT22;11628;51.072;3.712;2024-03-08T09:51:47;20.70;88.50
22925;DHT22;11628;51.072;3.712;2024-03-08T09:54:15;22.00;83.70
22925;DHT22;11628;51.072;3.712;2024-03-08T09:56:43;20.50;83.70
22925;DHT22;11628;51.072;3.712;2024-03-08T09:59:16;21.00;83.50
22925;DHT22;11628;51.072;3.712;2024-03-08T10:01:52;19.50;83.30
22925;DHT22;11628;51.072;3.712;2024-03-08T10:04:24;20.20;83.80
22925;DHT22;11628;51.072;3.712;2024-03-08T10:06:51;18.90;85.60
22925;DHT22;11628;51.072;3.712;2024-03-08T10:09:18;20.40;83.40
22925;DHT22;11628;51.072;3.712;2024-03-08T10:11:44;20.90;81.80
22925;DHT22;11628;51.072;3.712;2024-03-08T10:14:13;21.80;79.70
22925;DHT22;11628;51.072;3.712;2024-03-08T10:16:43;22.20;77.80
22925;DHT22;11628;51.072;3.712;2024-03-08T10:19:12;21.70;77.90
22925;DHT22;11628;51.072;3.712;2024-03-08T10:21:49;22.40;75.70
22925;DHT22;11628;51.072;3.712;2024-03-08T10:24:17;22.00;75.40
22925;DHT22;11628;51.072;3.712;2024-03-08T10:26:52;20.70;78.50
22925;DHT22;11628;51.072;3.712;2024-03-08T10:29:18;21.20;77.40
22925;DHT22;11628;51.072;3.712;2024-03-08T10:31:46;21.10;76.10
22925;DHT22;11628;51.072;3.712;2024-03-08T10:34:15;21.20;76.70
22925;DHT22;11628;51.072;3.712;2024-03-08T10:36:44;22.00;74.90
22925;DHT22;11628;51.072;3.712;2024-03-08T10:39:27;20.80;76.90
22925;DHT22;11628;51.072;3.712;2024-03-08T10:42:02;21.70;75.90
22925;DHT22;11628;51.072;3.712;2024-03-08T10:47:09;21.50;74.90
22925;DHT22;11628;51.072;3.712;2024-03-08T10:52:29;23.50;71.50
22925;DHT22;11628;51.072;3.712;2024-03-08T10:54:59;23.20;70.90
22925;DHT22;11628;51.072;3.712;2024-03-08T10:57:29;23.50;71.50
22925;DHT22;11628;51.072;3.712;2024-03-08T10:59:55;23.20;71.00
22925;DHT22;11628;51.072;3.712;2024-03-08T11:02:25;23.60;71.20
22925;DHT22;11628;51.072;3.712;2024-03-08T11:04:52;21.80;71.10
22925;DHT22;11628;51.072;3.712;2024-03-08T11:07:21;21.10;74.10
22925;DHT22;11628;51.072;3.712;2024-03-08T11:09:53;22.00;73.10
22925;DHT22;11628;51.072;3.712;2024-03-08T11:12:23;22.90;71.40
22925;DHT22;11628;51.072;3.712;2024-03-08T11:14:56;24.10;69.40
22925;DHT22;11628;51.072;3.712;2024-03-08T11:19:57;20.90;72.60
22925;DHT22;11628;51.072;3.712;2024-03-08T11:22:28;21.70;72.60
22925;DHT22;11628;51.072;3.712;2024-03-08T11:25:08;23.30;70.60
22925;DHT22;11628;51.072;3.712;2024-03-08T11:27:38;24.60;68.10
22925;DHT22;11628;51.072;3.712;2024-03-08T11:30:08;24.90;66.40
22925;DHT22;11628;51.072;3.712;2024-03-08T11:32:47;25.10;64.60
22925;DHT22;11628;51.072;3.712;2024-03-08T11:35:20;23.50;68.50
22925;DHT22;11628;51.072;3.712;2024-03-08T11:37:49;23.20;67.40
22925;DHT22;11628;51.072;3.712;2024-03-08T11:40:17;23.30;68.70
22925;DHT22;11628;51.072;3.712;2024-03-08T11:42:46;24.30;66.30
22925;DHT22;11628;51.072;3.712;2024-03-08T11:45:18;23.50;67.90
22925;DHT22;11628;51.072;3.712;2024-03-08T11:47:47;24.30;65.60
22925;DHT22;11628;51.072;3.712;2024-03-08T11:50:18;24.50;65.70
22925;DHT22;11628;51.072;3.712;2024-03-08T11:52:46;24.50;65.10
22925;DHT22;11628;51.072;3.712;2024-03-08T11:55:17;25.10;64.20
22925;DHT22;11628;51.072;3.712;2024-03-08T11:57:44;25.30;63.10
22925;DHT22;11628;51.072;3.712;2024-03-08T12:00:19;25.10;63.80
22925;DHT22;11628;51.072;3.712;2024-03-08T12:03:04;24.90;64.50
22925;DHT22;11628;51.072;3.712;2024-03-08T12:05:31;24.60;65.30
22925;DHT22;11628;51.072;3.712;2024-03-08T12:07:59;24.60;65.80
22925;DHT22;11628;51.072;3.712;2024-03-08T12:10:25;24.80;64.60
22925;DHT22;11628;51.072;3.712;2024-03-08T12:12:54;25.70;63.70
22925;DHT22;11628;51.072;3.712;2024-03-08T12:15:24;24.60;65.20
22925;DHT22;11628;51.072;3.712;2024-03-08T12:17:52;24.20;65.50
22925;DHT22;11628;51.072;3.712;2024-03-08T12:22:48;24.50;64.40
22925;DHT22;11628;51.072;3.712;2024-03-08T12:25:15;24.80;64.20
22925;DHT22;11628;51.072;3.712;2024-03-08T12:27:42;25.20;63.10
22925;DHT22;11628;51.072;3.712;2024-03-08T12:30:19;25.10;63.50
22925;DHT22;11628;51.072;3.712;2024-03-08T12:35:29;25.20;63.90
22925;DHT22;11628;51.072;3.712;2024-03-08T12:37:56;25.70;62.70
22925;DHT22;11628;51.072;3.712;2024-03-08T12:40:26;25.70;62.20
22925;DHT22;11628;51.072;3.712;2024-03-08T12:42:57;25.10;62.40
22925;DHT22;11628;51.072;3.712;2024-03-08T12:45:26;24.50;63.70
22925;DHT22;11628;51.072;3.712;2024-03-08T12:47:53;22.20;67.40
22925;DHT22;11628;51.072;3.712;2024-03-08T12:50:22;22.90;68.20
22925;DHT22;11628;51.072;3.712;2024-03-08T12:52:49;24.30;65.20
22925;DHT22;11628;51.072;3.712;2024-03-08T12:55:15;24.50;63.90
22925;DHT22;11628;51.072;3.712;2024-03-08T12:57:42;24.20;64.70
22925;DHT22;11628;51.072;3.712;2024-03-08T13:00:11;24.20;65.60
22925;DHT22;11628;51.072;3.712;2024-03-08T13:02:48;25.50;63.60
22925;DHT22;11628;51.072;3.712;2024-03-08T13:05:20;25.30;62.30
22925;DHT22;11628;51.072;3.712;2024-03-08T13:07:46;25.60;62.10
22925;DHT22;11628;51.072;3.712;2024-03-08T13:10:15;25.90;62.10
22925;DHT22;11628;51.072;3.712;2024-03-08T13:12:44;24.80;63.30
22925;DHT22;11628;51.072;3.712;2024-03-08T13:15:13;24.50;63.10
22925;DHT22;11628;51.072;3.712;2024-03-08T13:17:48;24.80;62.50
22925;DHT22;11628;51.072;3.712;2024-03-08T13:20:14;24.50;63.10
22925;DHT22;11628;51.072;3.712;2024-03-08T13:22:45;24.90;63.20
22925;DHT22;11628;51.072;3.712;2024-03-08T13:25:18;24.60;64.00
22925;DHT22;11628;51.072;3.712;2024-03-08T13:27:46;24.90;64.00
22925;DHT22;11628;51.072;3.712;2024-03-08T13:30:13;25.40;63.10
22925;DHT22;11628;51.072;3.712;2024-03-08T13:32:42;25.10;62.30
22925;DHT22;11628;51.072;3.712;2024-03-08T13:35:09;24.50;63.10
22925;DHT22;11628;51.072;3.712;2024-03-08T13:37:43;24.80;64.00
22925;DHT22;11628;51.072;3.712;2024-03-08T13:40:10;25.00;62.90
22925;DHT22;11628;51.072;3.712;2024-03-08T13:42:40;24.60;63.50
22925;DHT22;11628;51.072;3.712;2024-03-08T13:45:08;24.30;64.30
22925;DHT22;11628;51.072;3.712;2024-03-08T13:47:36;23.30;65.60
22925;DHT22;11628;51.072;3.712;2024-03-08T13:50:02;23.70;66.10
22925;DHT22;11628;51.072;3.712;2024-03-08T13:52:33;25.00;64.40
22925;DHT22;11628;51.072;3.712;2024-03-08T13:55:01;24.80;64.10
22925;DHT22;11628;51.072;3.712;2024-03-08T13:57:27;25.00;62.90
22925;DHT22;11628;51.072;3.712;2024-03-08T13:59:53;24.00;64.00
22925;DHT22;11628;51.072;3.712;2024-03-08T14:02:21;24.50;64.20
22925;DHT22;11628;51.072;3.712;2024-03-08T14:04:50;25.50;62.90
22925;DHT22;11628;51.072;3.712;2024-03-08T14:07:16;23.70;64.80
22925;DHT22;11628;51.072;3.712;2024-03-08T14:09:44;24.20;64.40
22925;DHT22;11628;51.072;3.712;2024-03-08T14:12:12;24.70;63.70
22925;DHT22;11628;51.072;3.712;2024-03-08T14:14:41;24.80;63.60
22925;DHT22;11628;51.072;3.712;2024-03-08T14:17:07;24.20;63.20
22925;DHT22;11628;51.072;3.712;2024-03-08T14:19:35;23.90;64.50
22925;DHT22;11628;51.072;3.712;2024-03-08T14:22:01;24.10;65.40
22925;DHT22;11628;51.072;3.712;2024-03-08T14:24:30;24.80;63.90
22925;DHT22;11628;51.072;3.712;2024-03-08T14:26:56;24.00;64.60
22925;DHT22;11628;51.072;3.712;2024-03-08T14:29:27;24.60;64.00
22925;DHT22;11628;51.072;3.712;2024-03-08T14:31:58;23.50;64.30
22925;DHT22;11628;51.072;3.712;2024-03-08T14:34:25;22.00;68.00
22925;DHT22;11628;51.072;3.712;2024-03-08T14:36:55;22.80;67.10
22925;DHT22;11628;51.072;3.712;2024-03-08T14:39:21;23.80;65.10
22925;DHT22;11628;51.072;3.712;2024-03-08T14:41:56;24.10;64.20
22925;DHT22;11628;51.072;3.712;2024-03-08T14:44:25;23.80;64.40
22925;DHT22;11628;51.072;3.712;2024-03-08T14:46:55;23.90;64.60
22925;DHT22;11628;51.072;3.712;2024-03-08T14:49:22;23.50;64.80
22925;DHT22;11628;51.072;3.712;2024-03-08T14:51:51;23.20;64.90
22925;DHT22;11628;51.072;3.712;2024-03-08T14:54:16;22.70;66.00
22925;DHT22;11628;51.072;3.712;2024-03-08T14:56:48;22.90;65.80
22925;DHT22;11628;51.072;3.712;2024-03-08T14:59:16;23.50;65.70
22925;DHT22;11628;51.072;3.712;2024-03-08T15:01:42;23.60;65.00
22925;DHT22;11628;51.072;3.712;2024-03-08T15:04:10;23.40;65.90
22925;DHT22;11628;51.072;3.712;2024-03-08T15:06:38;23.70;65.00
22925;DHT22;11628;51.072;3.712;2024-03-08T15:09:08;23.10;66.10
22925;DHT22;11628;51.072;3.712;2024-03-08T15:11:47;22.80;66.30
22925;DHT22;11628;51.072;3.712;2024-03-08T15:14:15;22.60;66.40
22925;DHT22;11628;51.072;3.712;2024-03-08T15:16:42;22.30;67.00
22925;DHT22;11628;51.072;3.712;2024-03-08T15:19:09;21.50;68.70
22925;DHT22;11628;51.072;3.712;2024-03-08T15:21:37;21.80;68.90
22925;DHT22;11628;51.072;3.712;2024-03-08T15:24:03;22.30;68.80
22925;DHT22;11628;51.072;3.712;2024-03-08T15:26:37;23.00;68.00
22925;DHT22;11628;51.072;3.712;2024-03-08T15:29:04;23.00;66.60
22925;DHT22;11628;51.072;3.712;2024-03-08T15:31:33;22.40;67.00
22925;DHT22;11628;51.072;3.712;2024-03-08T15:34:00;21.80;68.30
22925;DHT22;11628;51.072;3.712;2024-03-08T15:36:32;21.50;69.80
22925;DHT22;11628;51.072;3.712;2024-03-08T15:39:01;21.40;70.60
22925;DHT22;11628;51.072;3.712;2024-03-08T15:41:29;21.00;70.20
22925;DHT22;11628;51.072;3.712;2024-03-08T15:43:55;20.40;71.50
22925;DHT22;11628;51.072;3.712;2024-03-08T15:46:21;20.70;71.70
22925;DHT22;11628;51.072;3.712;2024-03-08T15:48:50;20.60;71.30
22925;DHT22;11628;51.072;3.712;2024-03-08T15:51:18;20.80;71.80
22925;DHT22;11628;51.072;3.712;2024-03-08T15:53:48;20.80;71.60
22925;DHT22;11628;51.072;3.712;2024-03-08T15:56:21;20.60;72.30